createdAt,value
2019-01-30T00:01:25.532Z,3.70
2019-01-30T00:03:58.406Z,3.70
2019-01-30T00:06:31.326Z,3.70
2019-01-30T00:09:06.068Z,3.70
2019-01-30T00:11:39.461Z,3.70
2019-01-30T00:14:12.550Z,3.70
2019-01-30T00:16:45.645Z,3.70
2019-01-30T00:19:18.613Z,3.80
2019-01-30T00:21:51.725Z,3.80
2019-01-30T00:24:24.574Z,3.70
2019-01-30T00:26:57.883Z,3.80
2019-01-30T00:29:30.895Z,3.80
2019-01-30T00:32:03.997Z,3.70
2019-01-30T00:34:38.631Z,3.70
2019-01-30T00:37:11.683Z,3.80
2019-01-30T00:39:44.730Z,3.70
2019-01-30T00:42:17.657Z,3.80
2019-01-30T00:44:50.821Z,3.80
2019-01-30T00:47:24.017Z,3.80
2019-01-30T00:49:57.365Z,3.70
2019-01-30T00:52:30.185Z,3.70
2019-01-30T00:55:03.345Z,3.80
2019-01-30T00:57:36.128Z,3.70
2019-01-30T01:00:14.606Z,3.70
2019-01-30T01:02:47.826Z,3.80
2019-01-30T01:05:21.406Z,3.80
2019-01-30T01:07:54.470Z,3.80
2019-01-30T01:10:27.508Z,3.80
2019-01-30T01:13:00.551Z,3.80
2019-01-30T01:15:34.476Z,3.80
2019-01-30T01:18:07.795Z,3.90
2019-01-30T01:20:40.941Z,4.00
2019-01-30T01:23:14.048Z,3.90
2019-01-30T01:25:47.106Z,3.80
2019-01-30T01:28:21.834Z,3.80
2019-01-30T01:30:54.839Z,3.70
2019-01-30T01:33:28.925Z,3.80
2019-01-30T01:36:02.052Z,3.80
2019-01-30T01:38:35.399Z,3.70
2019-01-30T01:41:08.377Z,3.70
2019-01-30T01:43:41.266Z,3.70
2019-01-30T01:46:14.269Z,3.70
2019-01-30T01:48:47.439Z,3.80
2019-01-30T01:51:20.487Z,3.80
2019-01-30T01:53:53.267Z,3.80
2019-01-30T01:56:26.168Z,3.70
2019-01-30T01:58:59.467Z,3.70
2019-01-30T02:01:32.481Z,3.70
2019-01-30T02:04:05.474Z,3.70
2019-01-30T02:06:39.077Z,3.80
2019-01-30T02:09:12.183Z,3.80
2019-01-30T02:11:45.945Z,3.80
2019-01-30T02:14:19.342Z,3.70
2019-01-30T02:16:52.932Z,3.70
2019-01-30T02:19:26.662Z,3.70
2019-01-30T02:22:00.242Z,3.60
2019-01-30T02:24:34.080Z,3.60
2019-01-30T02:27:07.379Z,3.70
2019-01-30T02:29:40.320Z,3.60
2019-01-30T02:32:13.661Z,3.60
2019-01-30T02:34:46.860Z,3.70
2019-01-30T02:37:20.296Z,3.60
2019-01-30T02:39:53.338Z,3.60
2019-01-30T02:42:26.257Z,3.60
2019-01-30T02:44:59.518Z,3.60
2019-01-30T02:47:32.548Z,3.70
2019-01-30T02:50:07.651Z,3.70
2019-01-30T02:52:40.529Z,3.60
2019-01-30T02:55:15.407Z,3.60
2019-01-30T02:57:48.743Z,3.70
2019-01-30T03:00:34.192Z,3.60
2019-01-30T03:03:07.395Z,3.70
2019-01-30T03:05:40.348Z,3.60
2019-01-30T03:08:13.425Z,3.60
2019-01-30T03:10:46.552Z,3.70
2019-01-30T03:13:19.469Z,3.70
2019-01-30T03:15:52.492Z,3.80
2019-01-30T03:18:25.876Z,3.70
2019-01-30T03:20:58.826Z,3.80
2019-01-30T03:23:31.773Z,3.70
2019-01-30T03:26:04.998Z,3.80
2019-01-30T03:28:37.975Z,3.80
2019-01-30T03:31:17.699Z,3.90
2019-01-30T03:33:45.816Z,4.10
2019-01-30T03:36:18.830Z,4.10
2019-01-30T03:38:51.673Z,4.10
2019-01-30T03:41:25.070Z,4.10
2019-01-30T03:43:58.265Z,4.10
2019-01-30T03:46:31.504Z,4.10
2019-01-30T03:49:05.209Z,4.10
2019-01-30T03:51:38.817Z,4.00
2019-01-30T03:54:12.005Z,4.00
2019-01-30T03:56:45.225Z,4.00
2019-01-30T03:59:18.349Z,4.00
2019-01-30T04:01:51.665Z,4.10
2019-01-30T04:04:24.897Z,4.10
2019-01-30T04:06:59.363Z,4.10
2019-01-30T04:09:32.520Z,4.10
2019-01-30T04:12:05.901Z,4.00
2019-01-30T04:14:39.085Z,4.00
2019-01-30T04:17:12.050Z,4.00
2019-01-30T04:19:44.930Z,3.90
2019-01-30T04:22:18.066Z,3.90
2019-01-30T04:24:50.979Z,4.00
2019-01-30T04:27:24.657Z,4.00
2019-01-30T04:29:58.069Z,4.00
2019-01-30T04:32:31.553Z,3.90
2019-01-30T04:35:04.816Z,3.90
2019-01-30T04:37:38.276Z,3.90
2019-01-30T04:40:15.728Z,3.90
2019-01-30T04:42:49.486Z,4.00
2019-01-30T04:45:25.109Z,4.10
2019-01-30T04:47:58.201Z,4.00
2019-01-30T04:50:31.648Z,4.00
2019-01-30T04:53:04.951Z,4.00
2019-01-30T04:55:37.894Z,3.90
2019-01-30T04:58:11.251Z,3.90
2019-01-30T05:00:44.404Z,3.90
2019-01-30T05:03:18.123Z,3.90
2019-01-30T05:05:51.500Z,3.80
2019-01-30T05:08:25.196Z,3.80
2019-01-30T05:10:58.589Z,3.70
2019-01-30T05:13:31.657Z,3.80
2019-01-30T05:16:05.256Z,3.90
2019-01-30T05:18:38.168Z,3.80
2019-01-30T05:21:11.479Z,3.70
2019-01-30T05:23:44.756Z,3.70
2019-01-30T05:26:18.153Z,3.70
2019-01-30T05:28:52.056Z,3.60
2019-01-30T05:31:25.395Z,3.60
2019-01-30T05:33:58.539Z,3.60
2019-01-30T05:36:31.652Z,3.50
2019-01-30T05:39:06.424Z,3.50
2019-01-30T05:41:40.189Z,3.50
2019-01-30T05:44:13.249Z,3.50
2019-01-30T05:46:46.347Z,3.50
2019-01-30T05:49:19.106Z,3.50
2019-01-30T05:51:52.658Z,3.50
2019-01-30T05:54:25.649Z,3.50
2019-01-30T05:56:58.766Z,3.50
2019-01-30T05:59:31.999Z,3.40
2019-01-30T06:02:11.777Z,3.50
2019-01-30T06:04:39.856Z,3.50
2019-01-30T06:07:13.045Z,3.50
2019-01-30T06:09:46.439Z,3.60
2019-01-30T06:12:19.097Z,3.50
2019-01-30T06:14:52.448Z,3.60
2019-01-30T06:17:25.514Z,3.70
2019-01-30T06:19:58.652Z,3.70
2019-01-30T06:22:31.649Z,3.60
2019-01-30T06:25:07.479Z,3.70
2019-01-30T06:27:40.836Z,3.60
2019-01-30T06:30:16.616Z,3.70
2019-01-30T06:32:49.745Z,3.60
2019-01-30T06:35:23.308Z,3.60
2019-01-30T06:37:56.486Z,3.70
2019-01-30T06:40:33.467Z,3.70
2019-01-30T06:43:06.585Z,3.70
2019-01-30T06:45:39.611Z,3.70
2019-01-30T06:48:12.581Z,3.70
2019-01-30T06:50:45.776Z,3.80
2019-01-30T06:53:18.896Z,3.90
2019-01-30T06:55:52.114Z,4.10
2019-01-30T06:58:25.109Z,4.30
2019-01-30T07:00:58.434Z,4.50
2019-01-30T07:03:31.823Z,4.70
2019-01-30T07:06:07.629Z,4.80
2019-01-30T07:08:41.520Z,4.90
2019-01-30T07:11:14.902Z,5.00
2019-01-30T07:13:47.910Z,5.00
2019-01-30T07:16:21.034Z,5.00
2019-01-30T07:18:54.640Z,5.00
2019-01-30T07:21:27.784Z,5.20
2019-01-30T07:24:01.033Z,5.30
2019-01-30T07:26:33.882Z,5.60
2019-01-30T07:29:08.312Z,5.70
2019-01-30T07:31:41.811Z,6.00
2019-01-30T07:34:14.807Z,6.20
2019-01-30T07:36:47.990Z,6.70
2019-01-30T07:39:21.175Z,7.30
2019-01-30T07:41:54.274Z,7.80
2019-01-30T07:44:27.310Z,8.20
2019-01-30T07:47:00.645Z,8.70
2019-01-30T07:49:33.888Z,9.20
2019-01-30T07:52:07.168Z,9.60
2019-01-30T07:54:40.727Z,10.00
2019-01-30T07:57:14.436Z,10.20
2019-01-30T07:59:47.845Z,10.30
2019-01-30T08:02:22.037Z,10.60
2019-01-30T08:04:55.575Z,11.00
2019-01-30T08:07:30.866Z,11.10
2019-01-30T08:10:05.881Z,11.00
2019-01-30T08:12:39.011Z,11.00
2019-01-30T08:15:16.488Z,10.90
2019-01-30T08:17:49.868Z,10.70
2019-01-30T08:20:24.901Z,10.60
2019-01-30T08:22:58.057Z,10.60
2019-01-30T08:25:31.555Z,10.40
2019-01-30T08:28:05.256Z,10.30
2019-01-30T08:30:38.768Z,10.10
2019-01-30T08:33:13.018Z,10.20
2019-01-30T08:35:46.137Z,10.20
2019-01-30T08:38:19.238Z,10.00
2019-01-30T08:40:52.407Z,9.80
2019-01-30T08:43:25.650Z,9.60
2019-01-30T08:45:58.688Z,9.40
2019-01-30T08:48:32.126Z,9.30
2019-01-30T08:51:05.680Z,9.20
2019-01-30T08:53:40.428Z,9.30
2019-01-30T08:56:13.606Z,9.40
2019-01-30T08:58:46.852Z,9.40
2019-01-30T09:01:20.295Z,9.40
2019-01-30T09:03:53.545Z,9.30
2019-01-30T09:06:27.031Z,9.30
2019-01-30T09:08:59.983Z,9.50
2019-01-30T09:11:33.339Z,9.80
2019-01-30T09:14:06.923Z,10.00
2019-01-30T09:16:40.101Z,10.10
2019-01-30T09:19:13.602Z,10.00
2019-01-30T09:21:47.222Z,9.90
2019-01-30T09:24:20.454Z,9.90
2019-01-30T09:26:53.493Z,10.10
2019-01-30T09:29:26.748Z,10.20
2019-01-30T09:32:00.314Z,10.30
2019-01-30T09:34:33.510Z,10.60
2019-01-30T09:37:06.762Z,10.90
2019-01-30T09:39:40.007Z,11.20
2019-01-30T09:42:13.272Z,11.50
2019-01-30T09:44:47.440Z,11.90
2019-01-30T09:47:20.405Z,12.20
2019-01-30T09:49:53.349Z,12.40
2019-01-30T09:52:27.329Z,12.60
2019-01-30T09:55:00.356Z,12.60
2019-01-30T09:57:33.172Z,12.60
2019-01-30T10:00:07.767Z,12.50
2019-01-30T10:02:41.027Z,12.50
2019-01-30T10:05:14.858Z,12.70
2019-01-30T10:07:48.033Z,12.70
2019-01-30T10:10:24.963Z,12.30
2019-01-30T10:12:58.593Z,11.90
2019-01-30T10:15:43.917Z,11.50
2019-01-30T10:18:17.986Z,11.30
2019-01-30T10:20:51.530Z,11.20
2019-01-30T10:23:24.403Z,11.20
2019-01-30T10:25:57.787Z,11.20
2019-01-30T10:28:30.959Z,11.10
2019-01-30T10:31:04.572Z,11.20
2019-01-30T10:33:46.363Z,11.50
2019-01-30T10:36:12.665Z,11.80
2019-01-30T10:38:45.928Z,12.10
2019-01-30T10:41:19.132Z,12.20
2019-01-30T10:43:52.603Z,12.00
2019-01-30T10:46:26.261Z,11.90
2019-01-30T10:48:59.749Z,11.80
2019-01-30T10:51:33.351Z,11.70
2019-01-30T10:54:06.666Z,11.60
2019-01-30T10:56:40.476Z,11.50
2019-01-30T10:59:14.082Z,11.40
2019-01-30T11:01:48.803Z,11.20
2019-01-30T11:04:22.389Z,10.90
2019-01-30T11:06:56.493Z,10.70
2019-01-30T11:09:29.986Z,10.60
2019-01-30T11:12:03.515Z,10.40
2019-01-30T11:14:36.754Z,10.30
2019-01-30T11:17:09.981Z,10.30
2019-01-30T11:19:45.425Z,10.30
2019-01-30T11:22:19.764Z,10.20
2019-01-30T11:24:55.681Z,10.20
2019-01-30T11:27:28.329Z,10.10
2019-01-30T11:30:01.586Z,10.10
2019-01-30T11:32:35.080Z,10.00
2019-01-30T11:35:09.168Z,9.90
2019-01-30T11:37:42.654Z,9.90
2019-01-30T11:40:17.313Z,9.90
2019-01-30T11:42:50.779Z,9.80
2019-01-30T11:45:30.498Z,9.60
2019-01-30T11:48:04.233Z,9.50
2019-01-30T11:50:37.995Z,9.50
2019-01-30T11:53:11.861Z,9.40
2019-01-30T11:55:45.658Z,9.30
2019-01-30T11:58:19.246Z,9.20
2019-01-30T12:01:03.255Z,9.10
2019-01-30T12:03:35.542Z,9.10
2019-01-30T12:06:09.054Z,9.10
2019-01-30T12:08:50.173Z,9.00
2019-01-30T12:11:42.063Z,9.00
2019-01-30T12:14:15.907Z,8.90
2019-01-30T12:16:49.127Z,8.90
2019-01-30T12:19:23.386Z,8.90
2019-01-30T12:21:57.132Z,8.90
2019-01-30T12:24:31.403Z,8.90
2019-01-30T12:27:05.224Z,8.90
2019-01-30T12:29:38.601Z,9.00
2019-01-30T12:32:12.435Z,9.10
2019-01-30T12:34:45.801Z,9.10
2019-01-30T12:37:19.122Z,9.20
2019-01-30T12:39:58.442Z,9.30
2019-01-30T12:42:31.575Z,9.30
2019-01-30T12:45:07.798Z,9.40
2019-01-30T12:47:44.752Z,9.40
2019-01-30T12:50:20.025Z,9.40
2019-01-30T12:52:56.304Z,9.30
2019-01-30T12:55:30.179Z,9.30
2019-01-30T12:58:03.850Z,9.20
2019-01-30T13:00:40.910Z,9.10
2019-01-30T13:03:14.463Z,9.10
2019-01-30T13:05:47.913Z,9.10
2019-01-30T13:11:19.336Z,9.10
2019-01-30T13:13:57.646Z,9.10
2019-01-30T13:16:31.053Z,9.10
2019-01-30T13:19:06.071Z,9.20
2019-01-30T13:21:39.457Z,9.10
2019-01-30T13:24:12.907Z,9.10
2019-01-30T13:26:46.589Z,9.10
2019-01-30T13:29:20.104Z,9.10
2019-01-30T13:31:53.914Z,9.10
2019-01-30T13:34:27.130Z,9.00
2019-01-30T13:37:04.497Z,9.00
2019-01-30T13:39:38.072Z,9.00
2019-01-30T13:42:12.145Z,9.00
2019-01-30T13:44:45.292Z,9.00
2019-01-30T13:47:18.816Z,9.00
2019-01-30T13:49:55.475Z,9.00
2019-01-30T13:52:28.859Z,9.00
2019-01-30T13:55:02.434Z,8.90
2019-01-30T13:57:35.911Z,8.90
2019-01-30T14:00:24.022Z,8.90
2019-01-30T14:02:57.729Z,8.90
2019-01-30T14:05:31.646Z,8.80
2019-01-30T14:08:05.577Z,8.80
2019-01-30T14:10:42.012Z,8.70
2019-01-30T14:13:15.314Z,8.70
2019-01-30T14:15:49.316Z,8.60
2019-01-30T14:18:22.572Z,8.60
2019-01-30T14:20:56.626Z,8.60
2019-01-30T14:23:30.543Z,8.60
2019-01-30T14:26:07.119Z,8.50
2019-01-30T14:28:42.083Z,8.50
2019-01-30T14:31:15.547Z,8.50
2019-01-30T14:33:49.046Z,8.50
2019-01-30T14:36:22.638Z,8.50
2019-01-30T14:38:55.767Z,8.40
2019-01-30T14:41:28.973Z,8.40
2019-01-30T14:44:02.214Z,8.40
2019-01-30T14:46:35.703Z,8.30
2019-01-30T14:49:08.917Z,8.30
2019-01-30T14:51:42.424Z,8.20
2019-01-30T14:54:16.401Z,8.20
2019-01-30T14:56:49.737Z,8.10
2019-01-30T14:59:22.900Z,8.10
2019-01-30T15:01:56.138Z,8.00
2019-01-30T15:04:29.605Z,8.00
2019-01-30T15:07:02.938Z,7.90
2019-01-30T15:09:35.988Z,7.90
2019-01-30T15:12:09.683Z,7.80
2019-01-30T15:14:43.145Z,7.80
2019-01-30T15:17:17.424Z,7.70
2019-01-30T15:19:50.889Z,7.70
2019-01-30T15:22:23.969Z,7.70
2019-01-30T15:24:57.439Z,7.60
2019-01-30T15:27:31.335Z,7.60
2019-01-30T15:30:05.458Z,7.50
2019-01-30T15:32:39.590Z,7.50
2019-01-30T15:35:13.465Z,7.50
2019-01-30T15:37:47.393Z,7.60
2019-01-30T15:40:26.831Z,7.50
2019-01-30T15:43:00.324Z,7.40
2019-01-30T15:45:35.936Z,7.40
2019-01-30T15:48:10.041Z,7.40
2019-01-30T15:50:44.976Z,7.30
2019-01-30T15:53:21.866Z,7.30
2019-01-30T15:55:55.365Z,7.20
2019-01-30T15:58:28.852Z,7.10
2019-01-30T16:01:11.172Z,7.10
2019-01-30T16:03:44.519Z,7.00
2019-01-30T16:06:18.570Z,7.00
2019-01-30T16:08:51.991Z,6.90
2019-01-30T16:11:25.396Z,6.80
2019-01-30T16:13:59.079Z,6.70
2019-01-30T16:16:32.300Z,6.60
2019-01-30T16:19:05.909Z,6.60
2019-01-30T16:21:39.164Z,6.60
2019-01-30T16:24:12.931Z,6.60
2019-01-30T16:26:46.479Z,6.50
2019-01-30T16:29:19.762Z,6.50
2019-01-30T16:31:54.076Z,6.50
2019-01-30T16:34:27.823Z,6.50
2019-01-30T16:37:01.365Z,6.50
2019-01-30T16:39:34.550Z,6.60
2019-01-30T16:42:08.646Z,6.50
2019-01-30T16:44:42.164Z,6.50
2019-01-30T16:47:15.814Z,6.50
2019-01-30T16:49:49.474Z,6.40
2019-01-30T16:52:23.275Z,6.40
2019-01-30T16:54:58.309Z,6.40
2019-01-30T16:57:31.747Z,6.40
2019-01-30T17:00:05.253Z,6.30
2019-01-30T17:02:38.243Z,6.30
2019-01-30T17:05:14.165Z,6.20
2019-01-30T17:07:47.638Z,6.20
2019-01-30T17:10:21.356Z,6.20
2019-01-30T17:12:56.053Z,6.20
2019-01-30T17:15:33.246Z,6.10
2019-01-30T17:18:07.700Z,6.10
2019-01-30T17:20:41.976Z,6.00
2019-01-30T17:23:15.206Z,6.00
2019-01-30T17:25:48.647Z,5.90
2019-01-30T17:28:25.314Z,5.90
2019-01-30T17:31:29.865Z,5.80
2019-01-30T17:34:03.489Z,5.80
2019-01-30T17:36:36.572Z,5.70
2019-01-30T17:39:12.478Z,5.70
2019-01-30T17:41:45.997Z,5.60
2019-01-30T17:44:22.690Z,5.50
2019-01-30T17:47:14.602Z,5.50
2019-01-30T17:49:48.379Z,5.60
2019-01-30T17:52:21.405Z,5.50
2019-01-30T17:54:54.685Z,5.50
2019-01-30T17:57:31.272Z,5.40
2019-01-30T18:00:07.688Z,5.40
2019-01-30T18:02:41.492Z,5.40
2019-01-30T18:05:14.918Z,5.30
2019-01-30T18:07:48.449Z,5.30
2019-01-30T18:10:23.525Z,5.20
2019-01-30T18:12:58.074Z,5.10
2019-01-30T18:15:32.700Z,5.00
2019-01-30T18:18:06.104Z,4.90
2019-01-30T18:20:39.215Z,4.90
2019-01-30T18:23:12.178Z,4.90
2019-01-30T18:25:45.719Z,4.90
2019-01-30T18:28:18.884Z,4.80
2019-01-30T18:30:52.455Z,4.70
2019-01-30T18:33:25.974Z,4.60
2019-01-30T18:36:00.434Z,4.70
2019-01-30T18:38:35.862Z,4.50
2019-01-30T18:41:08.790Z,4.50
2019-01-30T18:43:42.133Z,4.50
2019-01-30T18:46:15.532Z,4.40
2019-01-30T18:48:48.630Z,4.40
2019-01-30T18:51:21.851Z,4.30
2019-01-30T18:53:54.919Z,4.30
2019-01-30T18:56:27.961Z,4.20
2019-01-30T18:59:00.992Z,4.20
2019-01-30T19:01:33.860Z,4.20
2019-01-30T19:04:07.404Z,4.20
2019-01-30T19:06:51.675Z,4.10
2019-01-30T19:09:15.926Z,4.10
2019-01-30T19:11:49.288Z,4.10
2019-01-30T19:14:22.800Z,4.10
2019-01-30T19:16:56.104Z,4.10
2019-01-30T19:19:29.285Z,4.10
2019-01-30T19:22:01.907Z,4.00
2019-01-30T19:24:35.806Z,4.00
2019-01-30T19:27:10.860Z,4.10
2019-01-30T19:29:43.986Z,4.10
2019-01-30T19:32:17.377Z,4.00
2019-01-30T19:34:50.159Z,4.00
2019-01-30T19:37:23.329Z,4.00
2019-01-30T19:39:56.298Z,3.90
2019-01-30T19:42:29.147Z,3.90
2019-01-30T19:45:02.206Z,3.90
2019-01-30T19:47:35.148Z,3.90
2019-01-30T19:50:12.156Z,4.00
2019-01-30T19:52:45.365Z,3.90
2019-01-30T19:55:18.616Z,3.90
2019-01-30T19:57:51.841Z,3.90
2019-01-30T20:00:46.140Z,3.90
2019-01-30T20:03:25.854Z,3.90
2019-01-30T20:05:59.131Z,4.00
2019-01-30T20:08:33.492Z,4.00
2019-01-30T20:11:06.672Z,3.90
2019-01-30T20:13:44.120Z,4.00
2019-01-30T20:16:29.379Z,4.00
2019-01-30T20:19:02.366Z,4.00
2019-01-30T20:21:35.872Z,4.00
2019-01-30T20:24:09.051Z,4.00
2019-01-30T20:26:42.173Z,4.00
2019-01-30T20:29:15.747Z,4.00
2019-01-30T20:31:49.209Z,4.10
2019-01-30T20:34:22.437Z,4.10
2019-01-30T20:36:56.053Z,4.10
2019-01-30T20:39:29.148Z,4.20
2019-01-30T20:42:02.313Z,4.10
2019-01-30T20:44:35.596Z,4.10
2019-01-30T20:47:39.082Z,4.10
2019-01-30T20:50:21.747Z,4.10
2019-01-30T20:52:55.395Z,4.10
2019-01-30T20:55:31.183Z,4.00
2019-01-30T20:58:04.869Z,4.00
2019-01-30T21:00:40.014Z,4.00
2019-01-30T21:03:13.071Z,4.00
2019-01-30T21:05:46.443Z,4.00
2019-01-30T21:08:19.738Z,4.00
2019-01-30T21:10:52.856Z,4.00
2019-01-30T21:13:27.025Z,4.00
2019-01-30T21:16:00.588Z,4.00
2019-01-30T21:18:34.642Z,4.10
2019-01-30T21:21:08.142Z,4.10
2019-01-30T21:23:41.566Z,4.00
2019-01-30T21:26:14.820Z,4.00
2019-01-30T21:28:48.367Z,4.00
2019-01-30T21:31:22.037Z,4.00
2019-01-30T21:33:54.744Z,4.00
2019-01-30T21:36:27.854Z,4.00
2019-01-30T21:39:01.241Z,4.00
2019-01-30T21:41:34.327Z,4.00
2019-01-30T21:44:07.967Z,4.00
2019-01-30T21:46:41.204Z,4.00
2019-01-30T21:49:14.616Z,4.00
2019-01-30T21:51:47.769Z,4.00
2019-01-30T21:54:20.982Z,4.10
2019-01-30T21:56:54.238Z,4.10
2019-01-30T21:59:28.213Z,4.10
2019-01-30T22:02:08.387Z,4.10
2019-01-30T22:04:36.538Z,4.20
2019-01-30T22:07:09.552Z,4.20
2019-01-30T22:09:42.946Z,4.20
2019-01-30T22:12:16.094Z,4.20
2019-01-30T22:14:49.303Z,4.10
2019-01-30T22:17:22.491Z,4.00
2019-01-30T22:19:55.837Z,4.10
2019-01-30T22:22:29.478Z,4.00
2019-01-30T22:25:02.670Z,4.00
2019-01-30T22:27:35.876Z,4.00
2019-01-30T22:30:15.040Z,4.00
2019-01-30T22:32:48.304Z,3.90
2019-01-30T22:35:21.582Z,3.90
2019-01-30T22:37:54.785Z,3.90
2019-01-30T22:40:28.321Z,3.80
2019-01-30T22:43:02.956Z,3.80
2019-01-30T22:45:36.147Z,3.80
2019-01-30T22:48:10.707Z,3.70
2019-01-30T22:50:43.981Z,3.60
2019-01-30T22:53:17.144Z,3.60
2019-01-30T22:55:50.163Z,3.50
2019-01-30T22:58:24.659Z,3.50
2019-01-30T23:01:42.336Z,3.40
2019-01-30T23:05:10.110Z,3.40
2019-01-30T23:08:43.788Z,3.40
2019-01-30T23:12:16.318Z,3.30
2019-01-30T23:15:06.318Z,3.20
2019-01-30T23:18:23.764Z,3.20
2019-01-30T23:21:04.298Z,3.10
2019-01-30T23:24:42.670Z,3.10
2019-01-30T23:27:56.650Z,3.10
2019-01-30T23:31:35.956Z,3.10
2019-01-30T23:35:23.427Z,3.20
2019-01-30T23:39:16.898Z,3.10
2019-01-30T23:42:23.380Z,3.10
2019-01-30T23:45:40.953Z,3.10
2019-01-30T23:49:26.131Z,3.10
2019-01-30T23:52:58.273Z,3.10
2019-01-30T23:56:08.663Z,3.10
2019-01-30T23:59:24.528Z,3.10
